.
WxDataArchive / Data Records for 2006-02-20
2006-02-19 February 2006 2006-02-21

Data Records for Monday, 20 February 2006

Time	Temp	Chill	HIndex	Humid	Dewpt	 Wind 	HiWind	WindDir	Rain 	Barom 
-----	----	-----	------	-----	-----	------	------	-------	-----	----- 
00:00	18.4	12.4	18.4	56	5.4	4	15	270	0.00	30.272 
00:05	18.3	18.3	18.3	56	5.3	3	9	248	0.00	30.272 
00:10	18.1	18.1	18.1	56	5.1	2	9	270	0.00	30.272 
00:15	18.1	12.0	18.1	56	5.1	4	11	270	0.00	30.266 
00:20	18.1	18.1	18.1	57	5.5	2	6	248	0.00	30.266 
00:25	18.0	18.0	18.0	57	5.4	3	10	270	0.00	30.266 
00:30	17.8	17.8	17.8	57	5.2	2	6	270	0.00	30.263 
00:35	17.8	17.8	17.8	56	4.8	3	9	270	0.00	30.263 
00:40	17.8	17.8	17.8	56	4.8	3	7	270	0.00	30.263 
00:45	17.7	17.7	17.7	56	4.7	3	9	270	0.00	30.262 
00:50	17.5	17.5	17.5	56	4.5	2	5	248	0.00	30.262 
00:55	17.5	17.5	17.5	58	5.3	1	4	248	0.00	30.262 
01:00	17.3	17.3	17.3	58	5.1	2	6	248	0.00	30.252 
01:05	17.2	17.2	17.2	58	5.0	2	5	248	0.00	30.252 
01:10	17.2	17.2	17.2	58	5.0	2	6	248	0.00	30.252 
01:15	17.2	17.2	17.2	58	5.0	3	6	248	0.00	30.262 
01:20	17.3	17.3	17.3	58	5.1	2	6	270	0.00	30.262 
01:25	17.3	17.3	17.3	59	5.5	2	6	248	0.00	30.262 
01:30	17.3	17.3	17.3	58	5.1	2	9	248	0.00	30.254 
01:35	17.3	17.3	17.3	58	5.1	3	9	248	0.00	30.254 
01:40	17.3	17.3	17.3	59	5.5	1	6	248	0.00	30.254 
01:45	17.2	17.2	17.2	59	5.4	2	6	248	0.00	30.253 
01:50	17.2	17.2	17.2	59	5.4	2	7	270	0.00	30.253 
01:55	17.0	17.0	17.0	60	5.5	2	9	248	0.00	30.253 
02:00	17.0	17.0	17.0	59	5.2	2	5	248	0.00	30.258 
02:05	16.9	16.9	16.9	59	5.1	2	7	248	0.00	30.258 
02:10	16.9	16.9	16.9	59	5.1	2	5	248	0.00	30.258 
02:15	16.9	16.9	16.9	59	5.1	2	6	270	0.00	30.252 
02:20	16.9	16.9	16.9	59	5.1	1	5	248	0.00	30.252 
02:25	16.7	16.7	16.7	60	5.3	1	3	248	0.00	30.252 
02:30	16.7	16.7	16.7	59	4.9	2	5	248	0.00	30.247 
02:35	16.7	16.7	16.7	59	4.9	1	4	248	0.00	30.247 
02:40	16.5	16.5	16.5	59	4.7	1	4	248	0.00	30.247 
02:45	16.5	16.5	16.5	59	4.7	2	5	270	0.00	30.246 
02:50	16.5	16.5	16.5	59	4.7	2	5	248	0.00	30.246 
02:55	16.5	16.5	16.5	58	4.3	2	6	270	0.00	30.246 
03:00	16.4	16.4	16.4	59	4.6	2	6	225	0.00	30.244 
03:05	16.4	16.4	16.4	58	4.2	2	5	248	0.00	30.244 
03:10	16.4	16.4	16.4	58	4.2	2	6	248	0.00	30.244 
03:15	16.2	16.2	16.2	59	4.4	1	3	248	0.00	30.241 
03:20	16.2	16.2	16.2	59	4.4	1	4	248	0.00	30.241 
03:25	16.1	16.1	16.1	59	4.3	1	4	248	0.00	30.241 
03:30	16.1	16.1	16.1	59	4.3	2	4	248	0.00	30.235 
03:35	16.1	16.1	16.1	59	4.3	2	5	248	0.00	30.235 
03:40	15.9	15.9	15.9	59	4.1	1	5	248	0.00	30.235 
03:45	15.9	15.9	15.9	59	4.1	2	4	248	0.00	30.232 
03:50	15.9	15.9	15.9	59	4.1	2	7	248	0.00	30.232 
03:55	15.9	15.9	15.9	59	4.1	1	5	270	0.00	30.232 
04:00	15.7	15.7	15.7	60	4.3	1	6	248	0.00	30.230 
04:05	15.7	15.7	15.7	59	4.0	2	5	248	0.00	30.230 
04:10	15.6	15.6	15.6	60	4.2	1	3	248	0.00	30.230 
04:15	15.6	15.6	15.6	60	4.2	2	5	248	0.00	30.218 
04:20	15.6	15.6	15.6	60	4.2	2	5	248	0.00	30.218 
04:25	15.6	15.6	15.6	59	3.9	2	5	248	0.00	30.218 
04:30	15.6	15.6	15.6	59	3.9	2	4	248	0.00	30.213 
04:35	15.6	15.6	15.6	59	3.9	2	4	248	0.00	30.213 
04:40	15.4	15.4	15.4	60	4.0	1	3	248	0.00	30.213 
04:45	15.4	15.4	15.4	60	4.0	1	3	248	0.00	30.213 
04:50	15.2	15.2	15.2	61	4.2	1	3	248	0.00	30.213 
04:55	15.2	15.2	15.2	61	4.2	1	3	248	0.00	30.213 
05:00	15.2	15.2	15.2	61	4.2	1	4	248	0.00	30.211 
05:05	15.1	15.1	15.1	60	3.7	1	5	248	0.00	30.211 
05:10	15.2	15.2	15.2	60	3.8	2	6	248	0.00	30.211 
05:15	15.2	15.2	15.2	60	3.8	1	5	248	0.00	30.205 
05:20	15.1	15.1	15.1	60	3.7	1	3	248	0.00	30.205 
05:25	15.1	15.1	15.1	60	3.7	1	3	248	0.00	30.205 
05:30	15.1	15.1	15.1	60	3.7	1	3	248	0.00	30.215 
05:35	15.1	15.1	15.1	60	3.7	1	6	248	0.00	30.215 
05:40	15.1	15.1	15.1	60	3.7	2	4	248	0.00	30.215 
05:45	15.2	15.2	15.2	59	3.5	2	5	248	0.00	30.214 
05:50	15.2	15.2	15.2	59	3.5	1	5	248	0.00	30.214 
05:55	15.2	15.2	15.2	59	3.5	2	5	248	0.00	30.214 
06:00	15.2	15.2	15.2	59	3.5	1	5	248	0.00	30.207 
06:05	15.1	15.1	15.1	59	3.4	1	3	248	0.00	30.207 
06:10	15.1	15.1	15.1	59	3.4	2	4	248	0.00	30.207 
06:15	15.1	15.1	15.1	59	3.4	2	6	248	0.00	30.210 
06:20	15.1	15.1	15.1	59	3.4	2	5	248	0.00	30.210 
06:25	15.1	15.1	15.1	59	3.4	1	3	248	0.00	30.210 
06:30	15.1	15.1	15.1	59	3.4	2	6	248	0.00	30.208 
06:35	14.9	14.9	14.9	59	3.2	2	4	248	0.00	30.208 
06:40	14.9	14.9	14.9	59	3.2	1	5	248	0.00	30.208 
06:45	14.9	14.9	14.9	60	3.6	1	2	248	0.00	30.203 
06:50	14.8	14.8	14.8	60	3.5	1	4	248	0.00	30.203 
06:55	14.8	14.8	14.8	61	3.8	2	5	248	0.00	30.203 
07:00	14.8	14.8	14.8	61	3.8	1	4	270	0.00	30.204 
07:05	14.6	14.6	14.6	62	4.0	1	2	248	0.00	30.204 
07:10	14.6	14.6	14.6	62	4.0	1	4	248	0.00	30.204 
07:15	14.6	14.6	14.6	62	4.0	1	3	248	0.00	30.197 
07:20	14.6	14.6	14.6	63	4.3	1	2	248	0.00	30.197 
07:25	14.4	14.4	14.4	64	4.5	1	4	248	0.00	30.197 
07:30	14.4	14.4	14.4	65	4.8	1	3	248	0.00	30.201 
07:35	14.4	14.4	14.4	65	4.8	2	4	248	0.00	30.201 
07:40	14.4	14.4	14.4	65	4.8	2	5	248	0.00	30.201 
07:45	14.4	14.4	14.4	65	4.8	2	5	248	0.00	30.202 
07:50	14.4	14.4	14.4	65	4.8	1	2	225	0.00	30.202 
07:55	14.4	14.4	14.4	65	4.8	1	3	248	0.00	30.202 
08:00	14.4	14.4	14.4	65	4.8	1	2	248	0.00	30.199 
08:05	14.4	14.4	14.4	65	4.8	1	3	248	0.00	30.199 
08:10	14.8	14.8	14.8	65	5.2	1	2	248	0.00	30.199 
08:15	15.1	15.1	15.1	65	5.5	2	6	248	0.00	30.203 
08:20	15.4	15.4	15.4	64	5.4	2	5	248	0.00	30.203 
08:25	15.7	15.7	15.7	63	5.4	2	5	248	0.00	30.203 
08:30	16.1	16.1	16.1	62	5.4	2	5	248	0.00	30.209 
08:35	16.4	16.4	16.4	62	5.7	1	4	248	0.00	30.209 
08:40	16.7	16.7	16.7	59	4.9	3	6	248	0.00	30.209 
08:45	16.9	16.9	16.9	58	4.7	2	6	248	0.00	30.204 
08:50	17.2	17.2	17.2	57	4.6	3	6	248	0.00	30.204 
08:55	17.3	17.3	17.3	57	4.7	3	7	248	0.00	30.204 
09:00	17.7	17.7	17.7	57	5.1	2	6	248	0.00	30.201 
09:05	18.0	18.0	18.0	55	4.6	3	10	248	0.00	30.201 
09:10	18.1	18.1	18.1	55	4.7	3	7	248	0.00	30.201 
09:15	18.3	18.3	18.3	54	4.5	3	7	248	0.00	30.198 
09:20	18.6	18.6	18.6	54	4.8	3	9	248	0.00	30.198 
09:25	19.1	19.1	19.1	53	4.8	3	5	248	0.00	30.198 
09:30	19.2	13.3	19.2	53	4.9	4	9	248	0.00	30.205 
09:35	19.5	19.5	19.5	53	5.2	2	5	248	0.00	30.205 
09:40	20.2	20.2	20.2	51	5.0	2	4	248	0.00	30.205 
09:45	20.5	14.8	20.5	50	4.8	4	14	248	0.00	30.204 
09:50	20.5	20.5	20.5	51	5.3	3	7	248	0.00	30.204 
09:55	21.0	21.0	21.0	52	6.2	2	5	270	0.00	30.204 
10:00	21.0	21.0	21.0	50	5.3	3	9	248	0.00	30.199 
10:05	21.1	21.1	21.1	51	5.8	3	7	248	0.00	30.199 
10:10	21.6	21.6	21.6	50	5.9	3	6	248	0.00	30.199 
10:15	21.6	16.1	21.6	49	5.4	4	9	248	0.00	30.194 
10:20	21.9	21.9	21.9	49	5.7	3	10	248	0.00	30.194 
10:25	22.2	16.8	22.2	49	6.0	4	12	270	0.00	30.194 
10:30	22.2	16.8	22.2	48	5.5	4	12	270	0.00	30.190 
10:35	22.9	22.9	22.9	48	6.2	2	5	270	0.00	30.190 
10:40	23.0	23.0	23.0	49	6.7	3	6	270	0.00	30.190 
10:45	23.0	17.7	23.0	49	6.7	4	12	270	0.00	30.191 
10:50	23.2	23.2	23.2	48	6.5	3	11	270	0.00	30.191 
10:55	23.6	23.6	23.6	48	6.8	3	6	270	0.00	30.191 
11:00	23.9	23.9	23.9	48	7.1	2	5	270	0.00	30.189 
11:05	23.8	17.4	23.8	46	6.1	5	13	248	0.00	30.189 
11:10	24.1	24.1	24.1	46	6.3	3	7	248	0.00	30.189 
11:15	23.9	18.7	23.9	46	6.2	4	13	270	0.00	30.187 
11:20	24.1	19.0	24.1	46	6.3	4	11	270	0.00	30.187 
11:25	24.5	24.5	24.5	46	6.7	3	7	270	0.00	30.187 
11:30	24.8	24.8	24.8	46	7.0	3	7	270	0.00	30.181 
11:35	25.0	20.0	25.0	46	7.2	4	9	270	0.00	30.181 
11:40	25.3	25.3	25.3	46	7.4	3	6	270	0.00	30.181 
11:45	25.3	20.3	25.3	45	7.0	4	10	248	0.00	30.176 
11:50	25.6	20.7	25.6	46	7.7	4	12	270	0.00	30.176 
11:55	25.6	25.6	25.6	45	7.2	3	9	270	0.00	30.176 
12:00	26.0	26.0	26.0	44	7.1	3	9	270	0.00	30.174 
12:05	26.0	26.0	26.0	45	7.6	3	9	270	0.00	30.174 
12:10	26.4	26.4	26.4	46	8.5	3	8	270	0.00	30.174 
12:15	26.6	26.6	26.6	45	8.2	3	5	270	0.00	30.160 
12:20	26.9	26.9	26.9	43	7.4	3	7	270	0.00	30.160 
12:25	26.6	19.8	26.6	42	6.6	6	12	248	0.00	30.160 
12:30	26.0	20.0	26.0	43	6.6	5	13	270	0.00	30.158 
12:35	26.6	26.6	26.6	43	7.2	2	5	248	0.00	30.158 
12:40	27.3	27.3	27.3	43	7.8	3	9	270	0.00	30.158 
12:45	27.0	20.3	27.0	41	6.5	6	12	270	0.00	30.142 
12:50	27.2	27.2	27.2	43	7.7	3	6	248	0.00	30.142 
12:55	27.6	27.6	27.6	43	8.1	3	7	270	0.00	30.142 
13:00	27.0	20.3	27.0	41	6.5	6	11	270	0.00	30.127 
13:05	27.0	22.3	27.0	44	8.0	4	10	270	0.00	30.127 
13:10	27.2	21.4	27.2	42	7.2	5	11	270	0.00	30.127 
13:15	27.2	22.5	27.2	46	9.2	4	10	248	0.00	30.115 
13:20	27.2	21.4	27.2	43	7.7	5	11	248	0.00	30.115 
13:25	27.5	22.9	27.5	43	8.0	4	10	248	0.00	30.115 
13:30	27.3	22.6	27.3	42	7.3	4	9	248	0.00	30.112 
13:35	27.8	27.8	27.8	42	7.7	3	8	248	0.00	30.112 
13:40	28.2	23.7	28.2	43	8.6	4	10	270	0.00	30.112 
13:45	28.5	28.5	28.5	41	7.8	3	6	270	0.00	30.095 
13:50	28.7	28.7	28.7	43	9.1	3	7	270	0.00	30.095 
13:55	28.5	23.0	28.5	42	8.4	5	14	248	0.00	30.095 
14:00	28.4	23.9	28.4	42	8.3	4	12	248	0.00	30.083 
14:05	28.8	28.8	28.8	42	8.6	3	7	248	0.00	30.083 
14:10	28.8	24.4	28.8	42	8.6	4	10	248	0.00	30.083 
14:15	29.3	29.3	29.3	42	9.1	3	6	248	0.00	30.079 
14:20	29.1	23.7	29.1	39	7.3	5	12	270	0.00	30.079 
14:25	29.4	29.4	29.4	44	10.2	3	7	270	0.00	30.079 
14:30	29.4	25.1	29.4	41	8.6	4	9	248	0.00	30.071 
14:35	29.7	25.4	29.7	41	8.9	4	10	270	0.00	30.071 
14:40	29.3	29.3	29.3	43	9.6	3	7	225	0.00	30.071 
14:45	29.3	25.0	29.3	40	8.0	4	14	248	0.00	30.066 
14:50	29.3	23.0	29.3	41	8.6	6	12	270	0.00	30.066 
14:55	29.3	29.3	29.3	41	8.6	3	6	248	0.00	30.066 
15:00	29.7	25.4	29.7	41	8.9	4	9	270	0.00	30.055 
15:05	30.0	30.0	30.0	40	8.6	3	10	270	0.00	30.055 
15:10	30.1	25.9	30.1	41	9.3	4	10	248	0.00	30.055 
15:15	30.6	30.6	30.6	41	9.7	3	6	248	0.00	30.048 
15:20	30.7	26.6	30.7	39	8.7	4	9	248	0.00	30.048 
15:25	30.6	26.5	30.6	40	9.2	4	9	270	0.00	30.048 
15:30	30.9	26.8	30.9	39	8.9	4	6	270	0.00	30.046 
15:35	30.7	25.5	30.7	39	8.7	5	12	270	0.00	30.046 
15:40	31.0	31.0	31.0	40	9.5	3	7	248	0.00	30.046 
15:45	30.4	25.2	30.4	40	9.0	5	12	270	0.00	30.039 
15:50	30.3	24.2	30.3	41	9.5	6	13	270	0.00	30.039 
15:55	30.3	26.1	30.3	40	8.9	4	11	270	0.00	30.039 
16:00	30.1	24.8	30.1	41	9.3	5	11	270	0.00	30.039 
16:05	30.3	26.1	30.3	40	8.9	4	13	270	0.00	30.039 
16:10	30.3	26.1	30.3	41	9.5	4	9	248	0.00	30.039 
16:15	30.3	25.1	30.3	41	9.5	5	10	270	0.00	30.042 
16:20	30.3	26.1	30.3	41	9.5	4	10	248	0.00	30.042 
16:25	30.4	30.4	30.4	42	10.1	3	6	248	0.00	30.042 
16:30	30.3	26.1	30.3	41	9.5	4	9	270	0.00	30.045 
16:35	30.1	30.1	30.1	42	9.8	3	7	248	0.00	30.045 
16:40	30.3	30.3	30.3	42	10.0	3	7	270	0.00	30.045 
16:45	30.1	30.1	30.1	42	9.8	3	6	270	0.00	30.035 
16:50	30.1	25.9	30.1	43	10.3	4	7	248	0.00	30.035 
16:55	30.1	30.1	30.1	43	10.3	3	7	248	0.00	30.035 
17:00	30.0	24.7	30.0	43	10.2	5	12	248	0.00	30.032 
17:05	29.7	29.7	29.7	44	10.5	3	10	270	0.00	30.032 
17:10	29.7	29.7	29.7	44	10.5	3	9	248	0.00	30.032 
17:15	29.8	25.5	29.8	44	10.6	4	13	248	0.00	30.029 
17:20	29.7	25.4	29.7	44	10.5	4	11	248	0.00	30.029 
17:25	29.7	25.4	29.7	45	11.0	4	11	248	0.00	30.029 
17:30	29.5	29.5	29.5	46	11.3	3	11	270	0.00	30.022 
17:35	29.4	29.4	29.4	46	11.2	3	9	270	0.00	30.022 
17:40	29.1	24.7	29.1	46	10.9	4	11	248	0.00	30.022 
17:45	29.0	24.6	29.0	48	11.8	4	11	270	0.00	30.018 
17:50	29.0	24.6	29.0	47	11.3	4	12	270	0.00	30.018 
17:55	28.8	28.8	28.8	48	11.6	3	9	248	0.00	30.018 
18:00	28.7	24.3	28.7	48	11.5	4	14	248	0.00	30.016 
18:05	28.7	24.3	28.7	48	11.5	4	12	270	0.00	30.016 
18:10	28.5	28.5	28.5	49	11.8	2	5	248	0.00	30.016 
18:15	28.4	28.4	28.4	50	12.2	1	4	248	0.00	30.018 
18:20	28.2	28.2	28.2	50	12.0	2	8	248	0.00	30.018 
18:25	28.2	28.2	28.2	50	12.0	2	6	248	0.00	30.018 
18:30	28.2	23.7	28.2	50	12.0	4	7	248	0.00	30.013 
18:35	28.1	28.1	28.1	50	11.9	3	7	248	0.00	30.013 
18:40	28.1	28.1	28.1	50	11.9	3	7	248	0.00	30.013 
18:45	27.9	27.9	27.9	51	12.1	2	5	248	0.00	30.011 
18:50	27.8	27.8	27.8	51	12.1	2	5	248	0.00	30.011 
18:55	27.8	27.8	27.8	51	12.1	2	4	248	0.00	30.011 
19:00	27.6	27.6	27.6	52	12.3	1	3	248	0.00	30.003 
19:05	27.6	27.6	27.6	52	12.3	1	3	248	0.00	30.003 
19:10	27.6	27.6	27.6	52	12.3	1	3	248	0.00	30.003 
19:15	27.5	27.5	27.5	53	12.6	1	2	248	0.00	30.003 
19:20	27.3	27.3	27.3	54	12.9	0	1	248	0.00	30.003 
19:25	27.2	27.2	27.2	54	12.8	0	1	248	0.00	30.003 
19:30	27.2	27.2	27.2	56	13.6	0	1	248	0.00	30.003 
19:35	27.0	27.0	27.0	57	13.8	0	1	248	0.00	30.003 
19:40	27.0	27.0	27.0	58	14.2	0	1	248	0.00	30.003 
19:45	27.0	27.0	27.0	56	13.4	0	1	248	0.00	30.001 
19:50	27.2	27.2	27.2	57	14.0	0	2	248	0.00	30.001 
19:55	27.2	27.2	27.2	57	14.0	0	1	248	0.00	30.001 
20:00	27.5	27.5	27.5	56	13.9	1	5	248	0.00	29.995 
20:05	27.6	27.6	27.6	56	14.0	0	2	248	0.00	29.995 
20:10	27.8	27.8	27.8	56	14.2	1	2	248	0.00	29.995 
20:15	27.9	27.9	27.9	56	14.3	1	2	225	0.00	29.985 
20:20	27.9	27.9	27.9	57	14.7	1	2	225	0.00	29.985 
20:25	28.1	28.1	28.1	57	14.9	1	3	248	0.00	29.985 
20:30	28.1	28.1	28.1	58	15.3	1	3	248	0.00	29.979 
20:35	28.1	28.1	28.1	58	15.3	1	2	248	0.00	29.979 
20:40	28.2	28.2	28.2	58	15.3	1	3	248	0.00	29.979 
20:45	28.4	28.4	28.4	59	15.9	2	6	248	0.00	29.979 
20:50	28.5	28.5	28.5	59	16.0	3	5	248	0.00	29.979 
20:55	28.7	28.7	28.7	59	16.2	2	5	248	0.00	29.979 
21:00	28.8	28.8	28.8	59	16.3	3	5	248	0.00	29.975 
21:05	29.0	29.0	29.0	60	16.9	3	6	248	0.00	29.975 
21:10	29.0	29.0	29.0	60	16.9	3	7	248	0.00	29.975 
21:15	29.1	23.7	29.1	59	16.6	5	13	248	0.00	29.966 
21:20	29.1	23.7	29.1	59	16.6	5	9	270	0.00	29.966 
21:25	29.1	24.7	29.1	59	16.6	4	11	248	0.00	29.966 
21:30	29.1	23.7	29.1	58	16.2	5	10	248	0.00	29.968 
21:35	29.0	22.7	29.0	58	16.1	6	14	248	0.00	29.968 
21:40	29.0	22.7	29.0	59	16.5	6	16	270	0.00	29.968 
21:45	29.0	23.6	29.0	59	16.5	5	12	248	0.00	29.968 
21:50	28.8	28.8	28.8	59	16.3	3	10	248	0.00	29.968 
21:55	28.8	22.4	28.8	59	16.3	6	12	248	0.00	29.968 
22:00	28.8	23.3	28.8	60	16.7	5	14	248	0.00	29.967 
22:05	28.8	23.3	28.8	60	16.7	5	10	270	0.00	29.967 
22:10	28.8	23.3	28.8	60	16.7	5	11	248	0.00	29.967 
22:15	28.8	23.3	28.8	60	16.7	5	11	270	0.00	29.976 
22:20	28.7	24.3	28.7	61	17.0	4	10	248	0.00	29.976 
22:25	28.7	24.3	28.7	61	17.0	4	12	270	0.00	29.976 
22:30	28.7	24.3	28.7	61	17.0	4	12	248	0.00	29.975 
22:35	28.7	22.3	28.7	61	17.0	6	15	270	0.00	29.975 
22:40	28.7	22.3	28.7	61	17.0	6	14	270	0.00	29.975 
22:45	28.5	24.0	28.5	61	16.8	4	10	270	0.00	29.974 
22:50	28.5	22.1	28.5	61	16.8	6	13	248	0.00	29.974 
22:55	28.5	22.1	28.5	62	17.2	6	13	270	0.00	29.974 
23:00	28.5	24.0	28.5	62	17.2	4	10	270	0.00	29.975 
23:05	28.4	22.8	28.4	62	17.1	5	15	270	0.00	29.975 
23:10	28.4	22.8	28.4	62	17.1	5	11	248	0.00	29.975 
23:15	28.4	23.9	28.4	62	17.1	4	13	270	0.00	29.974 
23:20	28.4	22.8	28.4	62	17.1	5	15	248	0.00	29.974 
23:25	28.4	21.2	28.4	62	17.1	7	21	270	0.00	29.974 
23:30	28.2	22.6	28.2	62	16.9	5	12	270	0.00	29.974 
23:35	28.2	22.6	28.2	62	16.9	5	13	270	0.00	29.974 
23:40	28.2	22.6	28.2	62	16.9	5	13	270	0.00	29.974 
23:45	28.2	22.6	28.2	62	16.9	5	13	270	0.00	29.972 
23:50	28.1	22.5	28.1	61	16.4	5	17	270	0.00	29.972 
23:55	28.1	22.5	28.1	61	16.4	5	14	270	0.00	29.972 

CoCoRaHS
IN-AL-39
A2 Web Hosting
Creative Commons License
GoDaddy
Look for:

loaded 2017-12-13 15:55:28 • last modified 2010-11-18 10:43:29
Privacy PolicyDisclaimer
• wx.awcolley.com is powered by PmWiki v.2002016 •
• all content (unless otherwise noted) © 2017 A W Colley